Time;durP1;ratioP1;P1;durP2;ratioP2;P2;SDS_P1;SDS_P2;PMS_P1;PMS_P2;Temp;Humidity;BMP_temperature;BMP_pressure;BME280_temperature;BME280_humidity;BME280_pressure;Samples;Min_cycle;Max_cycle;Signal;HPM_P1;HPM_P2
2023/10/08 00:01:35;;;;;;;7.05;3.97;;;14.40;93.50;;;;;;5078074;28;20071;-64
2023/10/08 00:04:04;;;;;;;8.80;4.13;;;14.40;93.70;;;;;;5076155;28;20595;-64
2023/10/08 00:06:30;;;;;;;10.50;4.82;;;14.30;94.30;;;;;;5072981;28;20490;-64
2023/10/08 00:08:59;;;;;;;9.43;5.18;;;14.30;98.10;;;;;;5063549;28;20028;-64
2023/10/08 00:11:29;;;;;;;8.63;5.00;;;14.40;99.90;;;;;;5070436;28;20032;-64
2023/10/08 00:13:56;;;;;;;9.07;4.57;;;14.40;99.90;;;;;;5076357;28;20040;-64
2023/10/08 00:16:22;;;;;;;8.38;4.38;;;14.40;99.90;;;;;;5077557;28;20417;-64
2023/10/08 00:18:50;;;;;;;7.85;4.28;;;14.40;99.90;;;;;;5076291;28;20032;-64
2023/10/08 00:21:26;;;;;;;8.27;4.20;;;14.30;99.90;;;;;;5077648;28;20466;-64
2023/10/08 00:23:57;;;;;;;7.00;3.60;;;14.30;99.90;;;;;;5068316;28;20039;-64
2023/10/08 00:26:32;;;;;;;8.75;4.60;;;14.20;99.90;;;;;;5071341;28;20097;-64
2023/10/08 00:29:15;;;;;;;8.38;4.60;;;14.20;99.90;;;;;;5076276;28;20038;-64
2023/10/08 00:31:44;;;;;;;8.70;4.05;;;14.10;99.90;;;;;;5068886;28;20473;-64
2023/10/08 00:34:13;;;;;;;10.07;4.60;;;14.10;99.90;;;;;;5077206;28;20099;-64
2023/10/08 00:36:45;;;;;;;7.43;4.50;;;14.20;99.90;;;;;;5077382;28;20024;-64
2023/10/08 00:39:18;;;;;;;8.77;4.22;;;14.20;99.90;;;;;;5077015;28;20242;-64
2023/10/08 00:41:48;;;;;;;8.07;3.97;;;14.20;99.90;;;;;;5069525;28;20462;-64
2023/10/08 00:44:23;;;;;;;8.25;4.25;;;14.20;99.90;;;;;;5069691;28;20036;-64
2023/10/08 00:46:50;;;;;;;7.93;4.25;;;14.20;99.90;;;;;;5076978;28;20071;-64
2023/10/08 00:54:33;;;;;;;9.32;4.50;;;14.20;99.90;;;;;;5058211;28;20416;-64
2023/10/08 00:57:03;;;;;;;10.30;4.05;;;14.20;99.90;;;;;;5076568;28;20020;-64
2023/10/08 00:59:41;;;;;;;7.78;3.88;;;14.20;99.90;;;;;;5076911;28;20043;-64
2023/10/08 01:02:14;;;;;;;7.68;4.03;;;14.10;99.90;;;;;;5074502;28;20027;-64
2023/10/08 01:04:40;;;;;;;7.22;3.60;;;14.10;99.90;;;;;;5076808;28;20017;-64
2023/10/08 01:07:18;;;;;;;7.93;4.03;;;14.00;99.90;;;;;;5066954;28;20457;-64
2023/10/08 01:09:50;;;;;;;6.28;3.78;;;14.00;99.90;;;;;;5070234;28;20040;-64
2023/10/08 01:12:28;;;;;;;7.78;3.90;;;14.00;99.90;;;;;;5073931;28;20032;-64
2023/10/08 01:14:55;;;;;;;9.15;4.03;;;13.90;99.90;;;;;;5073015;28;20426;-64
2023/10/08 01:17:25;;;;;;;9.23;4.47;;;13.90;99.90;;;;;;5072018;28;20035;-64
2023/10/08 01:19:56;;;;;;;5.55;3.65;;;13.80;99.90;;;;;;5072528;28;20424;-64
2023/10/08 01:22:22;;;;;;;7.53;4.00;;;13.80;99.90;;;;;;5073730;28;20472;-64
2023/10/08 01:24:51;;;;;;;8.10;3.88;;;13.70;99.90;;;;;;5072391;28;20020;-64
2023/10/08 01:27:24;;;;;;;6.63;4.30;;;13.70;99.90;;;;;;5073876;28;20024;-64
2023/10/08 01:29:53;;;;;;;7.97;4.57;;;13.70;99.90;;;;;;5072670;28;20123;-64
2023/10/08 01:32:20;;;;;;;10.95;4.63;;;13.60;99.90;;;;;;5063343;28;20124;-64
2023/10/08 01:34:46;;;;;;;7.93;4.40;;;13.50;99.90;;;;;;5072265;28;20032;-64
2023/10/08 01:37:18;;;;;;;7.47;4.32;;;13.50;99.90;;;;;;5073732;28;20462;-64
2023/10/08 01:39:45;;;;;;;10.13;4.38;;;13.40;99.90;;;;;;5071385;28;20089;-65
2023/10/08 01:42:18;;;;;;;8.35;4.43;;;13.40;99.90;;;;;;5065682;28;20028;-64
2023/10/08 01:44:48;;;;;;;8.05;4.45;;;13.40;99.90;;;;;;5071572;28;20112;-64
2023/10/08 01:47:15;;;;;;;8.35;4.70;;;13.30;99.90;;;;;;5073302;28;20029;-64
2023/10/08 01:49:44;;;;;;;8.80;5.05;;;13.30;99.90;;;;;;5070394;28;20089;-64
2023/10/08 01:52:29;;;;;;;8.32;4.55;;;13.30;99.90;;;;;;5072160;28;20033;-64
2023/10/08 01:54:55;;;;;;;7.55;4.32;;;13.30;99.90;;;;;;5061851;28;20029;-64
2023/10/08 01:57:20;;;;;;;7.78;4.53;;;13.30;99.90;;;;;;5069300;28;20736;-64
2023/10/08 01:59:46;;;;;;;6.78;4.10;;;13.30;99.90;;;;;;5061843;28;20044;-64
2023/10/08 02:02:14;;;;;;;7.25;4.25;;;13.30;99.90;;;;;;5073082;28;20033;-64
2023/10/08 02:04:40;;;;;;;11.00;4.95;;;13.30;99.90;;;;;;5072301;28;20389;-64
2023/10/08 02:07:11;;;;;;;8.15;4.32;;;13.20;99.90;;;;;;5066951;28;20020;-64
2023/10/08 02:09:37;;;;;;;10.20;4.40;;;13.20;99.90;;;;;;5060651;28;20033;-64
2023/10/08 02:12:03;;;;;;;8.95;3.88;;;13.10;99.90;;;;;;5069968;28;20031;-64
2023/10/08 02:14:31;;;;;;;8.73;4.15;;;13.10;99.90;;;;;;5072099;28;20074;-64
2023/10/08 02:17:01;;;;;;;12.23;4.53;;;13.00;99.90;;;;;;5071647;28;20085;-64
2023/10/08 02:19:27;;;;;;;8.48;4.88;;;12.90;99.90;;;;;;5070867;28;20036;-64
2023/10/08 02:21:57;;;;;;;10.13;4.47;;;12.80;99.90;;;;;;5071859;28;20436;-64
2023/10/08 02:24:24;;;;;;;;;;;12.80;99.90;;;;;;5070030;28;20142;-65
2023/10/08 02:26:50;;;;;;;9.15;4.00;;;12.80;99.90;;;;;;5071210;28;20409;-64
2023/10/08 02:29:16;;;;;;;11.20;4.88;;;12.80;99.90;;;;;;5072017;28;20032;-65
2023/10/08 02:31:43;;;;;;;6.78;3.78;;;12.80;99.90;;;;;;5063739;28;20102;-65
2023/10/08 02:34:09;;;;;;;7.00;3.92;;;12.70;99.90;;;;;;5071934;28;20052;-64
2023/10/08 02:36:40;;;;;;;8.07;3.90;;;12.70;99.90;;;;;;5072161;28;20028;-65
2023/10/08 02:39:27;;;;;;;7.03;3.85;;;12.70;99.90;;;;;;5069212;28;20125;-64
2023/10/08 02:41:55;;;;;;;6.18;3.67;;;12.70;99.90;;;;;;5044470;28;20029;-64
2023/10/08 02:44:20;;;;;;;8.75;4.32;;;12.70;99.90;;;;;;5068263;28;20073;-64
2023/10/08 02:46:47;;;;;;;9.00;4.45;;;12.60;99.90;;;;;;5071297;28;20021;-64
2023/10/08 02:49:19;;;;;;;8.18;3.67;;;12.60;99.90;;;;;;5071253;28;20049;-65
2023/10/08 02:51:45;;;;;;;8.10;3.35;;;12.60;99.90;;;;;;5071405;28;20025;-65
2023/10/08 02:54:22;;;;;;;10.35;4.10;;;12.60;99.90;;;;;;5057332;28;20025;-65
2023/10/08 02:56:57;;;;;;;6.38;3.55;;;12.60;99.90;;;;;;5069081;28;20440;-65
2023/10/08 02:59:24;;;;;;;8.77;3.70;;;12.70;99.90;;;;;;5046404;28;20029;-65
2023/10/08 03:01:53;;;;;;;8.93;4.22;;;12.80;99.90;;;;;;5071087;28;20055;-63
2023/10/08 03:04:19;;;;;;;8.55;3.50;;;12.80;99.90;;;;;;5071294;28;20162;-64
2023/10/08 03:06:55;;;;;;;8.30;3.97;;;12.80;99.90;;;;;;5064721;28;20112;-65
2023/10/08 03:09:23;;;;;;;8.60;3.63;;;12.80;99.90;;;;;;5070109;28;20037;-65
2023/10/08 03:11:50;;;;;;;8.05;4.22;;;12.70;99.90;;;;;;5070491;28;20036;-65
2023/10/08 03:14:23;;;;;;;8.77;3.97;;;12.70;99.90;;;;;;5068765;28;20393;-66
2023/10/08 03:16:58;;;;;;;7.47;3.42;;;12.70;99.90;;;;;;5070833;28;20025;-65
2023/10/08 03:19:24;;;;;;;6.53;3.17;;;12.60;99.90;;;;;;5059182;28;20041;-65
2023/10/08 03:21:51;;;;;;;9.10;3.70;;;12.60;99.90;;;;;;5051332;28;20040;-65
2023/10/08 03:27:11;;;;;;;6.40;3.20;;;12.60;99.90;;;;;;5051358;28;20029;-65
2023/10/08 03:29:41;;;;;;;9.27;4.35;;;12.60;99.90;;;;;;5055799;28;20062;-65
2023/10/08 03:32:13;;;;;;;8.48;4.05;;;12.60;99.90;;;;;;5058805;28;20024;-64
2023/10/08 03:34:42;;;;;;;9.90;3.60;;;12.50;99.90;;;;;;5069760;28;20036;-65
2023/10/08 03:37:08;;;;;;;7.32;3.70;;;12.50;99.90;;;;;;5071306;28;20024;-64
2023/10/08 03:39:50;;;;;;;8.65;4.00;;;12.50;99.90;;;;;;5070834;28;20131;-64
2023/10/08 03:42:23;;;;;;;8.73;4.13;;;12.50;99.90;;;;;;5058407;28;20079;-64
2023/10/08 03:44:51;;;;;;;10.18;4.55;;;12.40;99.90;;;;;;5042706;28;20489;-64
2023/10/08 03:47:18;;;;;;;9.63;4.03;;;12.40;99.90;;;;;;5070805;28;20040;-64
2023/10/08 03:49:46;;;;;;;8.48;4.38;;;12.40;99.90;;;;;;5070252;28;20115;-64
2023/10/08 03:52:15;;;;;;;14.63;3.88;;;12.40;99.90;;;;;;5069589;28;20029;-64
2023/10/08 03:54:48;;;;;;;7.63;3.65;;;12.40;99.90;;;;;;5058930;28;20024;-64
2023/10/08 03:57:19;;;;;;;9.77;4.30;;;12.40;99.90;;;;;;5071037;28;20034;-64
2023/10/08 03:59:48;;;;;;;8.55;3.72;;;12.30;99.90;;;;;;5070011;28;20055;-64
2023/10/08 04:02:14;;;;;;;6.93;3.65;;;12.30;99.90;;;;;;5070554;28;20477;-65
2023/10/08 04:08:05;;;;;;;8.98;3.60;;;12.20;99.90;;;;;;5019171;28;20036;-66
2023/10/08 04:13:09;;;;;;;8.32;3.55;;;12.10;99.90;;;;;;5070522;28;20033;-64
2023/10/08 04:15:41;;;;;;;11.30;4.32;;;12.10;99.90;;;;;;5070466;28;20021;-64
2023/10/08 04:18:09;;;;;;;12.50;3.45;;;12.10;99.90;;;;;;5069913;28;20032;-64
2023/10/08 04:20:38;;;;;;;8.70;3.70;;;12.10;99.90;;;;;;5068433;28;20106;-64
2023/10/08 04:23:21;;;;;;;7.80;3.70;;;12.30;99.90;;;;;;5068188;28;20024;-65
2023/10/08 04:25:53;;;;;;;7.75;3.30;;;12.30;99.90;;;;;;5059993;28;20028;-64
2023/10/08 04:28:20;;;;;;;8.25;4.07;;;12.30;99.90;;;;;;5065702;28;20147;-64
2023/10/08 04:30:48;;;;;;;8.55;3.45;;;12.40;99.90;;;;;;5055047;28;20104;-65
2023/10/08 04:33:14;;;;;;;6.90;3.40;;;12.40;99.90;;;;;;5069236;28;20039;-65
2023/10/08 04:35:56;;;;;;;7.75;3.85;;;12.50;99.90;;;;;;5069863;28;20032;-64
2023/10/08 04:38:26;;;;;;;9.48;4.05;;;12.50;99.90;;;;;;5068563;28;20497;-65
2023/10/08 04:40:52;;;;;;;12.23;5.00;;;12.50;99.90;;;;;;5068323;28;20460;-65
2023/10/08 04:43:27;;;;;;;8.68;4.68;;;12.70;99.90;;;;;;5062038;28;20512;-65
2023/10/08 04:46:04;;;;;;;12.18;4.47;;;12.80;99.90;;;;;;5073153;28;20049;-65
2023/10/08 04:48:32;;;;;;;8.88;4.72;;;12.70;99.90;;;;;;5073636;28;20048;-65
2023/10/08 04:50:59;;;;;;;7.88;4.07;;;12.70;99.90;;;;;;5073050;28;20107;-65
2023/10/08 04:53:35;;;;;;;9.55;4.55;;;12.60;99.90;;;;;;5061968;28;20025;-65
2023/10/08 04:56:05;;;;;;;9.98;4.85;;;12.50;99.90;;;;;;5070493;28;20048;-65
2023/10/08 04:58:40;;;;;;;11.75;4.93;;;12.40;99.90;;;;;;5061079;28;20032;-64
2023/10/08 05:01:18;;;;;;;7.68;4.28;;;12.30;99.90;;;;;;5060571;28;20032;-64
2023/10/08 05:04:06;;;;;;;8.23;4.35;;;12.30;99.90;;;;;;5073232;28;20029;-65
2023/10/08 05:14:38;;;;;;;9.73;4.38;;;12.00;99.90;;;;;;5073549;28;20378;-64
2023/10/08 05:17:09;;;;;;;10.18;4.15;;;12.00;99.90;;;;;;5060021;28;20187;-64
2023/10/08 05:25:07;;;;;;;8.18;3.47;;;12.00;99.90;;;;;;5072793;28;20036;-64
2023/10/08 05:27:38;;;;;;;8.82;3.72;;;12.00;99.90;;;;;;5073709;28;20103;-64
2023/10/08 05:59:39;;;;;;;6.40;3.40;;;12.10;99.90;;;;;;5029852;28;19913;-64
2023/10/08 06:05:20;;;;;;;9.35;3.55;;;12.00;99.90;;;;;;5051452;28;20083;-64
2023/10/08 06:07:55;;;;;;;7.50;3.40;;;12.00;99.90;;;;;;5045128;28;20406;-66
2023/10/08 06:13:09;;;;;;;7.97;3.80;;;12.00;99.90;;;;;;5031143;28;20028;-65
2023/10/08 06:15:48;;;;;;;13.82;3.97;;;12.00;99.90;;;;;;5032394;28;20454;-66
2023/10/08 06:18:28;;;;;;;10.38;3.60;;;12.00;99.90;;;;;;5031932;28;20124;-65
2023/10/08 06:21:08;;;;;;;10.85;4.00;;;11.90;99.90;;;;;;5027123;28;20025;-65
2023/10/08 06:23:36;;;;;;;10.52;4.28;;;12.00;99.90;;;;;;5039172;28;20038;-65
2023/10/08 06:28:46;;;;;;;6.75;3.65;;;12.00;99.90;;;;;;5036396;28;20026;-65
2023/10/08 06:31:15;;;;;;;12.73;4.57;;;12.00;99.90;;;;;;5031398;28;20074;-65
2023/10/08 06:33:43;;;;;;;10.40;4.57;;;12.10;99.90;;;;;;5031285;28;20338;-65
2023/10/08 06:38:38;;;;;;;8.93;3.95;;;12.10;99.90;;;;;;5035051;28;20065;-64
2023/10/08 06:41:09;;;;;;;14.70;4.03;;;12.10;99.90;;;;;;5033832;28;20215;-64
2023/10/08 06:43:36;;;;;;;8.18;3.97;;;12.10;99.90;;;;;;5033415;28;20041;-64
2023/10/08 06:46:03;;;;;;;11.15;4.70;;;12.10;99.90;;;;;;5028353;28;20505;-64
2023/10/08 06:48:29;;;;;;;11.13;3.88;;;12.20;99.90;;;;;;5050985;28;20528;-64
2023/10/08 06:50:58;;;;;;;9.38;4.28;;;12.20;99.90;;;;;;5055438;28;20036;-64
2023/10/08 06:53:24;;;;;;;8.60;4.07;;;12.20;99.90;;;;;;5049164;28;20033;-65
2023/10/08 06:55:56;;;;;;;10.80;4.28;;;12.20;99.90;;;;;;5051409;28;20021;-65
2023/10/08 06:58:24;;;;;;;10.20;4.45;;;12.30;99.90;;;;;;5062815;28;20389;-64
2023/10/08 07:00:49;;;;;;;9.10;4.43;;;12.40;99.90;;;;;;5070418;28;20453;-65
2023/10/08 07:03:17;;;;;;;8.10;4.10;;;12.50;99.90;;;;;;5058143;28;20032;-65
2023/10/08 07:05:59;;;;;;;8.93;3.95;;;12.60;99.90;;;;;;5050761;28;20040;-65
2023/10/08 07:08:27;;;;;;;7.18;3.50;;;12.70;99.90;;;;;;5052206;28;20394;-65
2023/10/08 07:10:53;;;;;;;11.63;4.70;;;12.90;99.90;;;;;;5068125;28;20033;-65
2023/10/08 07:13:23;;;;;;;11.02;4.65;;;13.30;99.90;;;;;;5064547;28;20112;-64
2023/10/08 07:15:52;;;;;;;12.68;4.43;;;13.50;99.90;;;;;;5046860;28;20024;-65
2023/10/08 07:18:36;;;;;;;8.93;4.20;;;13.70;99.90;;;;;;5051315;28;20024;-65
2023/10/08 07:21:04;;;;;;;10.77;4.95;;;13.70;99.90;;;;;;5050004;28;20655;-65
2023/10/08 07:23:34;;;;;;;7.90;3.88;;;13.90;99.90;;;;;;5054458;28;20025;-65
2023/10/08 07:26:17;;;;;;;7.03;3.72;;;14.00;99.90;;;;;;5052353;28;20025;-65
2023/10/08 07:28:45;;;;;;;9.10;4.15;;;14.20;99.90;;;;;;5051579;28;20033;-65
2023/10/08 07:31:18;;;;;;;6.43;4.00;;;14.50;99.90;;;;;;5050771;28;20116;-66
2023/10/08 07:33:46;;;;;;;8.45;4.15;;;14.80;99.90;;;;;;5052133;28;20017;-65
2023/10/08 07:36:14;;;;;;;7.93;4.10;;;15.00;99.90;;;;;;5051782;28;20497;-65
2023/10/08 07:38:43;;;;;;;10.10;4.55;;;15.30;99.90;;;;;;5053262;28;20047;-65
2023/10/08 07:41:15;;;;;;;11.25;4.00;;;15.60;99.90;;;;;;5050745;28;20032;-65
2023/10/08 07:43:57;;;;;;;8.35;4.05;;;15.80;99.90;;;;;;5050422;28;20029;-65
2023/10/08 07:46:23;;;;;;;8.50;3.85;;;15.90;99.90;;;;;;5037441;28;20108;-70
2023/10/08 07:48:50;;;;;;;7.68;4.32;;;16.10;99.90;;;;;;5047745;28;20464;-64
2023/10/08 07:51:17;;;;;;;6.63;3.90;;;16.20;99.90;;;;;;5050924;28;20047;-65
2023/10/08 07:53:43;;;;;;;9.50;4.32;;;16.30;99.90;;;;;;5053530;28;20061;-64
2023/10/08 07:56:08;;;;;;;5.90;3.40;;;16.40;99.90;;;;;;5058043;28;20055;-64
2023/10/08 07:58:38;;;;;;;7.25;3.58;;;16.60;99.90;;;;;;5052003;28;20500;-64
2023/10/08 08:01:09;;;;;;;10.23;4.85;;;16.70;99.90;;;;;;5037499;28;20037;-64
2023/10/08 08:03:37;;;;;;;6.63;4.18;;;16.90;99.90;;;;;;5053255;28;20417;-63
2023/10/08 08:06:05;;;;;;;8.70;3.90;;;17.00;99.90;;;;;;5056222;28;20021;-63
2023/10/08 08:08:35;;;;;;;6.38;3.83;;;17.20;99.90;;;;;;5062225;28;20080;-63
2023/10/08 08:11:11;;;;;;;8.45;4.25;;;17.30;99.90;;;;;;5062891;28;20025;-64
2023/10/08 08:13:44;;;;;;;8.85;3.88;;;17.40;99.90;;;;;;5063400;28;20493;-65
2023/10/08 08:16:17;;;;;;;12.50;4.85;;;17.50;99.90;;;;;;5060628;28;20445;-64
2023/10/08 08:18:47;;;;;;;14.57;6.05;;;17.60;99.90;;;;;;5069524;28;20124;-64
2023/10/08 08:21:16;;;;;;;12.85;6.07;;;17.70;99.90;;;;;;5071534;28;20181;-63
2023/10/08 08:23:47;;;;;;;10.68;5.13;;;17.40;99.90;;;;;;5060408;28;20097;-64
2023/10/08 08:27:11;;;;;;;13.70;6.13;;;17.00;99.90;;;;;;5073174;28;20027;-64
2023/10/08 08:29:03;;;;;;;12.52;5.22;;;16.80;99.90;;;;;;5053830;28;20036;-64
2023/10/08 08:31:35;;;;;;;15.45;6.18;;;16.60;99.90;;;;;;5060582;28;20056;-64
2023/10/08 08:34:08;;;;;;;9.43;5.13;;;16.40;99.90;;;;;;5047384;28;20040;-64
2023/10/08 08:36:34;;;;;;;9.02;5.03;;;16.40;99.90;;;;;;5056880;28;20087;-65
2023/10/08 08:39:00;;;;;;;11.38;5.07;;;16.40;99.90;;;;;;5060513;28;20404;-65
2023/10/08 08:41:25;;;;;;;11.18;4.50;;;16.30;99.90;;;;;;5060516;28;20025;-65
2023/10/08 08:43:58;;;;;;;11.52;5.15;;;16.40;99.90;;;;;;5061172;28;20394;-65
2023/10/08 08:46:44;;;;;;;9.13;4.80;;;16.50;99.90;;;;;;5073334;28;20059;-65
2023/10/08 08:49:11;;;;;;;10.10;4.97;;;16.70;99.90;;;;;;5065500;28;20053;-65
2023/10/08 08:51:38;;;;;;;8.30;4.40;;;16.90;99.90;;;;;;5067491;28;20078;-65
2023/10/08 08:54:08;;;;;;;8.55;4.00;;;17.10;99.90;;;;;;5069048;28;20488;-65
2023/10/08 08:56:36;;;;;;;7.82;4.30;;;17.30;99.90;;;;;;5063200;28;20474;-65
2023/10/08 08:59:04;;;;;;;7.53;4.10;;;17.60;99.90;;;;;;5072636;28;20101;-65
2023/10/08 09:01:31;;;;;;;10.82;4.47;;;17.90;99.90;;;;;;5062824;28;20029;-65
2023/10/08 09:04:05;;;;;;;9.57;4.07;;;18.10;99.90;;;;;;5063789;28;20107;-65
2023/10/08 09:06:40;;;;;;;8.70;4.47;;;18.30;99.90;;;;;;5070711;28;20040;-65
2023/10/08 09:09:21;;;;;;;12.90;5.03;;;18.40;99.90;;;;;;5063236;28;20024;-65
2023/10/08 09:11:55;;;;;;;10.90;4.70;;;18.50;99.90;;;;;;5057180;28;20086;-65
2023/10/08 09:14:22;;;;;;;7.05;3.95;;;18.70;99.90;;;;;;5073286;28;20369;-65
2023/10/08 09:16:49;;;;;;;9.32;4.43;;;19.00;99.90;;;;;;5072934;28;20033;-65
2023/10/08 09:19:18;;;;;;;9.35;4.60;;;19.20;97.30;;;;;;5073148;28;20044;-65
2023/10/08 09:21:44;;;;;;;9.20;4.20;;;;;;;;;;5073026;28;20025;-64
2023/10/08 09:24:11;;;;;;;7.55;4.30;;;;;;;;;;5073282;28;20056;-65
2023/10/08 09:26:37;;;;;;;10.68;4.00;;;;;;;;;;5073448;28;20111;-65
2023/10/08 09:29:07;;;;;;;12.32;4.53;;;;;;;;;;5066309;28;20032;-65
2023/10/08 09:31:35;;;;;;;7.65;4.10;;;;;;;;;;5069933;28;20486;-65
2023/10/08 09:34:02;;;;;;;8.50;3.88;;;;;;;;;;5072024;28;20093;-65
2023/10/08 09:36:31;;;;;;;7.65;3.33;;;;;;;;;;5073083;28;20031;-65
2023/10/08 09:39:06;;;;;;;10.32;4.03;;;;;;;;;;5072254;28;20040;-65
2023/10/08 09:41:32;;;;;;;9.00;4.07;;;;;;;;;;5073467;28;20112;-65
2023/10/08 09:43:59;;;;;;;11.40;4.53;;;;;;;;;;5058597;28;20031;-65
2023/10/08 09:46:30;;;;;;;8.25;3.75;;;;;;;;;;5070881;28;20132;-65
2023/10/08 09:48:59;;;;;;;11.05;4.10;;;;;;;;;;5066468;28;20045;-65
2023/10/08 09:51:25;;;;;;;10.60;4.75;;;;;;;;;;5064694;28;20086;-66
2023/10/08 09:54:10;;;;;;;10.55;4.32;;;;;;;;;;5053781;28;20436;-67
2023/10/08 09:56:36;;;;;;;11.60;4.68;;;22.90;99.90;;;;;;5059428;28;20063;-66
2023/10/08 09:59:02;;;;;;;14.18;5.90;;;23.10;99.90;;;;;;5071712;28;20115;-66
2023/10/08 10:01:31;;;;;;;14.10;6.05;;;23.00;99.90;;;;;;5059193;28;20105;-65
2023/10/08 10:03:59;;;;;;;9.90;5.22;;;23.00;99.90;;;;;;5069401;28;20116;-65
2023/10/08 10:06:28;;;;;;;11.80;5.65;;;22.90;99.90;;;;;;5072040;28;20466;-65
2023/10/08 10:08:57;;;;;;;12.98;5.45;;;22.80;99.90;;;;;;5061736;28;20359;-65
2023/10/08 10:11:28;;;;;;;9.15;4.95;;;22.90;99.90;;;;;;5069319;28;20125;-68
2023/10/08 10:13:59;;;;;;;10.93;5.20;;;22.90;98.30;;;;;;5071211;28;20029;-67
2023/10/08 10:16:26;;;;;;;11.55;5.20;;;23.00;99.90;;;;;;5066575;28;20083;-69
2023/10/08 10:18:59;;;;;;;14.02;5.32;;;23.20;99.30;;;;;;5062638;28;20397;-66
2023/10/08 10:21:29;;;;;;;8.45;4.97;;;23.10;98.50;;;;;;5072422;28;20028;-64
2023/10/08 10:23:56;;;;;;;9.07;4.72;;;23.00;97.60;;;;;;5070282;28;20161;-68
2023/10/08 10:26:31;;;;;;;11.38;5.05;;;23.00;97.20;;;;;;5072045;28;20041;-65
2023/10/08 10:29:19;;;;;;;10.82;4.93;;;22.90;97.10;;;;;;5070976;28;20032;-66
2023/10/08 10:31:50;;;;;;;9.98;4.93;;;22.90;97.30;;;;;;5067974;28;20021;-68
2023/10/08 10:34:27;;;;;;;9.82;5.00;;;22.90;97.40;;;;;;5069613;28;20443;-66
2023/10/08 10:36:58;;;;;;;7.95;4.30;;;22.90;97.40;;;;;;5071472;28;20098;-65
2023/10/08 10:39:26;;;;;;;10.30;5.13;;;22.90;97.00;;;;;;5071023;28;20035;-69
2023/10/08 10:41:57;;;;;;;15.30;5.72;;;22.90;97.00;;;;;;5063791;28;20052;-67
2023/10/08 10:44:24;;;;;;;11.77;5.82;;;22.90;97.20;;;;;;5040532;28;20083;-67
2023/10/08 10:47:25;;;;;;;9.48;4.60;;;22.90;97.00;;;;;;5061492;28;20099;-68
2023/10/08 10:53:09;;;;;;;8.15;4.93;;;23.00;96.90;;;;;;5056010;28;20339;-67
2023/10/08 10:55:59;;;;;;;10.23;5.95;;;23.00;96.90;;;;;;5054905;28;20033;-66
2023/10/08 10:58:11;;;;;;;12.52;6.35;;;23.00;97.00;;;;;;5052430;28;20029;-66
2023/10/08 11:03:09;;;;;;;12.80;5.30;;;22.80;97.00;;;;;;5074150;28;20591;-66
2023/10/08 11:05:37;;;;;;;10.20;5.28;;;22.80;97.00;;;;;;5077575;28;20020;-65
2023/10/08 11:08:06;;;;;;;9.75;5.20;;;22.90;97.00;;;;;;5076499;28;20108;-66
2023/10/08 11:10:39;;;;;;;11.15;5.88;;;23.00;97.10;;;;;;5076684;28;20035;-66
2023/10/08 11:13:14;;;;;;;8.88;5.00;;;23.00;96.80;;;;;;5072718;28;20453;-66
2023/10/08 11:15:40;;;;;;;10.63;5.30;;;23.10;96.50;;;;;;5070342;28;20038;-66
2023/10/08 11:18:17;;;;;;;11.23;5.18;;;23.10;96.40;;;;;;5072251;28;20032;-66
2023/10/08 11:20:44;;;;;;;8.85;4.55;;;23.10;96.40;;;;;;5072841;28;20099;-67
2023/10/08 11:23:37;;;;;;;11.18;5.43;;;23.00;96.40;;;;;;5070388;28;20028;-67
2023/10/08 11:26:05;;;;;;;10.98;5.13;;;23.00;96.50;;;;;;5071806;28;20040;-67
2023/10/08 11:28:47;;;;;;;12.73;5.70;;;23.00;97.20;;;;;;5069521;28;20079;-67
2023/10/08 11:31:20;;;;;;;9.90;5.82;;;23.10;96.60;;;;;;5074386;28;20016;-67
2023/10/08 11:33:55;;;;;;;37.88;15.55;;;23.20;96.60;;;;;;5058264;28;20029;-67
2023/10/08 11:36:27;;;;;;;15.02;7.38;;;23.20;96.60;;;;;;5071436;28;20024;-65
2023/10/08 11:39:07;;;;;;;8.82;5.45;;;23.30;95.90;;;;;;5075227;28;20045;-66
2023/10/08 11:41:49;;;;;;;9.17;5.07;;;23.40;95.10;;;;;;5071980;28;20052;-65
2023/10/08 11:44:19;;;;;;;11.63;5.32;;;23.60;99.90;;;;;;5069518;28;20270;-66
2023/10/08 11:46:45;;;;;;;9.48;5.53;;;23.90;99.90;;;;;;5083720;28;20123;-66
2023/10/08 11:49:17;;;;;;;8.68;4.85;;;24.10;98.50;;;;;;5078377;28;20107;-65
2023/10/08 11:51:45;;;;;;;10.50;5.65;;;24.30;98.40;;;;;;5084842;28;20028;-65
2023/10/08 11:54:11;;;;;;;11.13;5.85;;;24.30;98.50;;;;;;5081957;28;20028;-65
2023/10/08 11:56:38;;;;;;;10.18;4.80;;;24.30;98.30;;;;;;5083324;28;20020;-66
2023/10/08 11:59:12;;;;;;;8.30;4.88;;;24.30;98.50;;;;;;5073735;28;20060;-65
2023/10/08 12:01:42;;;;;;;8.93;4.78;;;24.30;95.40;;;;;;5080516;28;20024;-65
2023/10/08 12:04:18;;;;;;;9.75;4.88;;;24.40;94.40;;;;;;5079379;28;20033;-65
2023/10/08 12:06:52;;;;;;;10.32;4.97;;;24.60;93.60;;;;;;5069114;28;20024;-65
2023/10/08 12:09:21;;;;;;;9.27;5.32;;;24.90;94.40;;;;;;5075626;28;20032;-66
2023/10/08 12:11:51;;;;;;;6.55;4.60;;;;;;;;;;5083713;28;20036;-66
2023/10/08 12:14:17;;;;;;;9.95;5.20;;;;;;;;;;5078941;28;20029;-66
2023/10/08 12:16:45;;;;;;;13.80;5.63;;;;;;;;;;5081064;28;21143;-66
2023/10/08 12:19:17;;;;;;;9.50;5.47;;;;;;;;;;5078971;28;20108;-65
2023/10/08 12:21:47;;;;;;;11.43;4.95;;;;;;;;;;5081412;28;20016;-66
2023/10/08 12:24:14;;;;;;;11.48;5.28;;;;;;;;;;5079429;28;20063;-66
2023/10/08 12:26:46;;;;;;;9.43;5.18;;;;;;;;;;5080606;28;20029;-66
2023/10/08 12:29:17;;;;;;;13.80;5.60;;;;;;;;;;5075563;28;20029;-66
2023/10/08 12:31:47;;;;;;;16.52;6.13;;;;;;;;;;5073088;28;20497;-66
2023/10/08 12:34:13;;;;;;;8.80;5.07;;;;;;;;;;5070001;28;20066;-66
2023/10/08 12:36:39;;;;;;;10.80;5.68;;;;;;;;;;5078537;28;20059;-66
2023/10/08 12:39:15;;;;;;;15.70;5.35;;;;;;;;;;5069265;28;20056;-65
2023/10/08 12:41:43;;;;;;;7.05;4.75;;;;;;;;;;5076096;28;20021;-65
2023/10/08 12:44:09;;;;;;;9.68;5.40;;;;;;;;;;5068122;28;20473;-66
2023/10/08 12:46:36;;;;;;;14.10;5.82;;;;;;;;;;5070488;28;20182;-66
2023/10/08 12:49:02;;;;;;;12.85;5.97;;;;;;;;;;5052065;28;20056;-66
2023/10/08 12:51:31;;;;;;;7.82;4.60;;;;;;;;;;5046919;28;20029;-66
2023/10/08 12:54:06;;;;;;;12.43;5.50;;;;;;;;;;5045102;28;20032;-66
2023/10/08 12:56:38;;;;;;;10.82;4.93;;;;;;;;;;5048928;28;20267;-65
2023/10/08 12:59:06;;;;;;;14.38;5.25;;;;;;;;;;5047662;28;20108;-65
2023/10/08 13:01:35;;;;;;;19.27;6.05;;;;;;;;;;5048618;28;20111;-65
2023/10/08 13:04:06;;;;;;;11.52;5.32;;;;;;;;;;5051088;28;20482;-66
2023/10/08 13:06:33;;;;;;;18.40;5.53;;;;;;;;;;5052970;28;20029;-65
2023/10/08 13:08:59;;;;;;;13.07;5.60;;;;;;;;;;5034723;28;20498;-65
2023/10/08 13:11:29;;;;;;;13.10;5.63;;;;;;;;;;5048475;28;20025;-66
2023/10/08 13:13:56;;;;;;;13.20;5.28;;;;;;;;;;5050540;28;20063;-66
2023/10/08 13:16:23;;;;;;;13.43;5.57;;;;;;;;;;5051425;28;20062;-65
2023/10/08 13:18:49;;;;;;;11.93;5.18;;;;;;;;;;5047916;28;20033;-67
2023/10/08 13:21:16;;;;;;;10.65;5.28;;;;;;;;;;5041234;28;20013;-66
2023/10/08 13:23:42;;;;;;;11.57;5.60;;;;;;;;;;5050262;28;20029;-66
2023/10/08 13:26:08;;;;;;;8.18;5.47;;;;;;;;;;5051998;28;20470;-66
2023/10/08 13:28:35;;;;;;;10.88;6.07;;;;;;;;;;5053661;28;20103;-66
2023/10/08 13:31:09;;;;;;;9.38;5.35;;;;;;;;;;5041756;28;20385;-66
2023/10/08 13:33:35;;;;;;;11.55;5.13;;;;;;;;;;5053921;28;20373;-66
2023/10/08 13:36:01;;;;;;;9.27;5.32;;;;;;;;;;5052362;28;20788;-66
2023/10/08 13:38:27;;;;;;;15.07;6.35;;;;;;;;;;5052126;28;20071;-66
2023/10/08 13:41:03;;;;;;;11.90;5.82;;;;;;;;;;5051213;28;20044;-66
2023/10/08 13:43:33;;;;;;;13.13;5.90;;;;;;;;;;5052888;28;20021;-67
2023/10/08 13:46:03;;;;;;;11.52;5.43;;;;;;;;;;5052149;28;20109;-67
2023/10/08 13:48:32;;;;;;;17.48;6.25;;;;;;;;;;5063945;28;20367;-66
2023/10/08 13:50:59;;;;;;;13.38;5.40;;;;;;;;;;5071939;28;20021;-67
2023/10/08 13:53:29;;;;;;;17.02;5.93;;;;;;;;;;5070820;28;20029;-66
2023/10/08 13:55:56;;;;;;;19.73;6.15;;;;;;;;;;5070876;28;20107;-67
2023/10/08 13:58:22;;;;;;;13.73;5.95;;;;;;;;;;5072712;28;20032;-67
2023/10/08 14:00:50;;;;;;;15.93;5.50;;;;;;;;;;5071737;28;20074;-66
2023/10/08 14:03:21;;;;;;;16.70;6.13;;;;;;;;;;5072940;28;20021;-70
2023/10/08 14:05:50;;;;;;;18.27;5.35;;;;;;;;;;5071531;28;20021;-68
2023/10/08 14:08:16;;;;;;;17.20;5.88;;;;;;;;;;5071804;28;20024;-67
2023/10/08 14:10:43;;;;;;;15.68;6.00;;;;;;;;;;5061783;28;20417;-70
2023/10/08 14:13:09;;;;;;;13.57;5.18;;;;;;;;;;5070117;28;20024;-66
2023/10/08 14:15:42;;;;;;;17.42;6.13;;;;;;;;;;5071843;28;20052;-67
2023/10/08 14:18:11;;;;;;;10.80;5.32;;;;;;;;;;5071778;28;20021;-66
2023/10/08 14:20:40;;;;;;;18.23;5.88;;;;;;;;;;5072303;28;20070;-66
2023/10/08 14:23:06;;;;;;;20.75;6.10;;;;;;;;;;5071711;28;20024;-66
2023/10/08 14:25:33;;;;;;;11.52;5.07;;;;;;;;;;5072139;28;20039;-67
2023/10/08 14:28:04;;;;;;;11.60;5.88;;;;;;;;;;5069577;28;20029;-66
2023/10/08 14:30:33;;;;;;;13.48;4.93;;;;;;;;;;5067363;28;20506;-67
2023/10/08 14:32:59;;;;;;;13.98;5.13;;;;;;;;;;5071382;28;20029;-67
2023/10/08 14:43:41;;;;;;;13.60;4.85;;;;;;;;;;5066946;28;20032;-73
2023/10/08 14:46:09;;;;;;;18.60;5.25;;;;;;;;;;5066950;28;20027;-70